createdAt,value
2023-02-14T00:02:27.290Z,25.45
2023-02-14T00:05:00.872Z,23.58
2023-02-14T00:07:34.233Z,22.95
2023-02-14T00:10:08.832Z,24.55
2023-02-14T00:12:43.804Z,25.27
2023-02-14T00:15:25.534Z,25.73
2023-02-14T00:18:00.483Z,27.55
2023-02-14T00:20:33.829Z,27.42
2023-02-14T00:23:07.210Z,30.77
2023-02-14T00:25:40.360Z,30.45
2023-02-14T00:28:14.949Z,32.95
2023-02-14T00:30:48.901Z,30.98
2023-02-14T00:33:22.222Z,32.33
2023-02-14T00:35:55.793Z,29.75
2023-02-14T00:38:28.876Z,29.63
2023-02-14T00:41:02.172Z,30.55
2023-02-14T00:43:36.803Z,33.25
2023-02-14T00:46:09.971Z,31.77
2023-02-14T00:48:43.492Z,31.85
2023-02-14T00:51:18.398Z,31.75
2023-02-14T00:53:52.497Z,30.50
2023-02-14T00:56:25.800Z,33.10
2023-02-14T00:59:00.354Z,32.47
2023-02-14T01:01:33.557Z,31.70
2023-02-14T01:04:07.693Z,31.38
2023-02-14T01:06:41.162Z,29.38
2023-02-14T01:09:14.791Z,34.17
2023-02-14T01:11:48.805Z,36.60
2023-02-14T01:14:23.952Z,37.33
2023-02-14T01:16:57.648Z,33.20
2023-02-14T01:19:30.917Z,31.55
2023-02-14T01:22:04.395Z,32.33
2023-02-14T01:24:38.168Z,33.88
2023-02-14T01:27:11.375Z,34.53
2023-02-14T01:29:45.916Z,31.27
2023-02-14T01:32:19.146Z,33.92
2023-02-14T01:34:52.407Z,35.17
2023-02-14T01:37:25.453Z,34.70
2023-02-14T01:39:59.172Z,34.47
2023-02-14T01:42:34.604Z,34.53
2023-02-14T01:45:16.043Z,31.65
2023-02-14T01:47:52.509Z,31.05
2023-02-14T01:50:30.074Z,28.58
2023-02-14T01:53:07.123Z,27.83
2023-02-14T01:55:45.344Z,28.08
2023-02-14T01:58:22.562Z,24.90
2023-02-14T02:01:00.817Z,24.25
2023-02-14T02:03:38.744Z,25.50
2023-02-14T02:06:16.723Z,25.48
2023-02-14T02:08:59.078Z,26.90
2023-02-14T02:11:35.333Z,25.35
2023-02-14T02:14:14.620Z,24.52
2023-02-14T02:17:18.824Z,25.38
2023-02-14T02:20:44.061Z,26.75
2023-02-14T02:23:47.427Z,24.05
2023-02-14T02:26:52.313Z,26.40
2023-02-14T02:30:02.486Z,22.80
2023-02-14T02:33:14.156Z,23.52
2023-02-14T02:36:08.819Z,23.92
2023-02-14T02:38:56.452Z,22.60
2023-02-14T02:41:40.278Z,24.98
2023-02-14T02:44:18.988Z,26.35
2023-02-14T02:47:03.918Z,22.98
2023-02-14T02:50:12.300Z,23.23
2023-02-14T02:53:04.506Z,23.73
2023-02-14T02:56:01.852Z,22.17
2023-02-14T02:58:40.124Z,21.75
2023-02-14T03:01:17.845Z,23.80
2023-02-14T03:04:14.371Z,26.05
2023-02-14T03:06:48.606Z,23.15
2023-02-14T03:09:54.211Z,21.95
2023-02-14T03:13:09.412Z,20.73
2023-02-14T03:15:55.147Z,21.83
2023-02-14T03:18:40.773Z,21.52
2023-02-14T03:21:23.385Z,24.13
2023-02-14T03:24:04.383Z,22.42
2023-02-14T03:26:49.524Z,20.13
2023-02-14T03:29:38.288Z,21.10
2023-02-14T03:32:17.092Z,20.15
2023-02-14T03:34:58.982Z,20.17
2023-02-14T03:37:38.093Z,20.90
2023-02-14T03:40:15.434Z,20.98
2023-02-14T03:42:54.295Z,19.38
2023-02-14T03:45:33.835Z,18.10
2023-02-14T03:48:10.257Z,21.33
2023-02-14T03:50:47.008Z,19.50
2023-02-14T03:53:24.144Z,20.42
2023-02-14T03:56:04.730Z,21.30
2023-02-14T03:58:43.860Z,19.98
2023-02-14T04:01:24.436Z,19.20
2023-02-14T04:03:58.890Z,21.13
2023-02-14T04:06:32.142Z,22.73
2023-02-14T04:09:06.316Z,19.40
2023-02-14T04:11:39.817Z,22.08
2023-02-14T04:14:14.774Z,22.73
2023-02-14T04:17:06.158Z,19.70
2023-02-14T04:19:39.347Z,21.27
2023-02-14T04:22:12.541Z,18.55
2023-02-14T04:24:46.198Z,20.10
2023-02-14T04:27:19.935Z,19.83
2023-02-14T04:29:54.753Z,21.85
2023-02-14T04:32:28.867Z,20.45
2023-02-14T04:37:35.581Z,21.52
2023-02-14T04:42:42.986Z,25.08
2023-02-14T04:45:17.829Z,28.30
2023-02-14T04:47:51.243Z,27.13
2023-02-14T04:50:25.954Z,29.92
2023-02-14T04:52:59.365Z,30.25
2023-02-14T04:55:32.607Z,36.03
2023-02-14T04:58:06.413Z,35.03
2023-02-14T05:00:41.305Z,34.15
2023-02-14T05:03:14.779Z,34.15
2023-02-14T05:05:47.945Z,33.25
2023-02-14T05:08:21.481Z,44.65
2023-02-14T05:10:55.741Z,58.83
2023-02-14T05:13:29.996Z,56.88
2023-02-14T05:16:05.730Z,56.20
2023-02-14T05:18:38.938Z,55.50
2023-02-14T05:21:12.349Z,44.97
2023-02-14T05:23:46.715Z,43.08
2023-02-14T05:26:20.194Z,46.08
2023-02-14T05:28:53.912Z,51.10
2023-02-14T05:31:30.553Z,49.22
2023-02-14T05:34:03.967Z,53.67
2023-02-14T05:36:37.096Z,50.60
2023-02-14T05:39:10.887Z,54.53
2023-02-14T05:41:45.034Z,47.72
2023-02-14T05:44:18.710Z,47.30
2023-02-14T05:49:28.289Z,44.53
2023-02-14T05:52:01.461Z,49.58
2023-02-14T05:54:35.867Z,47.28
2023-02-14T05:57:09.081Z,45.90
2023-02-14T05:59:42.788Z,51.65
2023-02-14T06:02:17.771Z,51.30
2023-02-14T06:04:51.222Z,54.22
2023-02-14T06:07:24.539Z,51.53
2023-02-14T06:09:57.902Z,58.80
2023-02-14T06:15:05.482Z,54.13
2023-02-14T06:17:40.840Z,55.95
2023-02-14T06:20:14.554Z,56.42
2023-02-14T06:22:47.757Z,58.13
2023-02-14T06:27:57.213Z,59.22
2023-02-14T06:30:31.517Z,60.25
2023-02-14T06:33:06.710Z,61.50
2023-02-14T06:35:40.243Z,62.85
2023-02-14T06:38:13.568Z,63.97
2023-02-14T06:40:46.932Z,63.60
2023-02-14T06:43:20.188Z,66.93
2023-02-14T06:45:53.420Z,70.75
2023-02-14T06:48:28.326Z,68.78
2023-02-14T06:51:02.259Z,67.43
2023-02-14T06:53:36.112Z,65.93
2023-02-14T06:56:09.647Z,66.15
2023-02-14T06:58:43.206Z,78.35
2023-02-14T07:01:16.544Z,81.72
2023-02-14T07:03:51.070Z,73.88
2023-02-14T07:06:24.760Z,73.82
2023-02-14T07:08:58.073Z,67.85
2023-02-14T07:11:31.595Z,68.15
2023-02-14T07:14:05.282Z,67.90
2023-02-14T07:16:38.641Z,74.32
2023-02-14T07:19:14.309Z,71.38
2023-02-14T07:21:47.762Z,68.93
2023-02-14T07:24:21.327Z,65.93
2023-02-14T07:26:54.445Z,64.70
2023-02-14T07:29:27.988Z,60.53
2023-02-14T07:32:01.671Z,64.32
2023-02-14T07:34:36.842Z,58.88
2023-02-14T07:37:10.125Z,62.65
2023-02-14T07:39:44.273Z,53.25
2023-02-14T07:42:17.834Z,58.15
2023-02-14T07:44:51.065Z,60.30
2023-02-14T07:47:25.177Z,73.32
2023-02-14T07:49:59.894Z,84.10
2023-02-14T07:52:33.119Z,85.68
2023-02-14T07:55:07.618Z,87.10
2023-02-14T07:57:41.319Z,91.75
2023-02-14T08:00:15.491Z,73.38
2023-02-14T08:02:50.059Z,71.50
2023-02-14T08:05:24.785Z,34.42
2023-02-14T08:07:58.093Z,22.80
2023-02-14T08:10:31.456Z,20.65
2023-02-14T08:13:05.864Z,19.60
2023-02-14T08:15:56.857Z,21.20
2023-02-14T08:18:30.372Z,17.63
2023-02-14T08:23:41.534Z,18.38
2023-02-14T08:26:14.904Z,20.33
2023-02-14T08:28:48.129Z,19.10
2023-02-14T08:31:35.071Z,19.85
2023-02-14T08:34:09.580Z,21.50
2023-02-14T08:36:44.709Z,20.08
2023-02-14T08:39:17.912Z,20.95
2023-02-14T08:41:51.218Z,21.42
2023-02-14T08:44:24.572Z,20.83
2023-02-14T08:49:31.503Z,20.17
2023-02-14T08:52:06.546Z,20.60
2023-02-14T08:54:39.755Z,20.77
2023-02-14T08:57:12.970Z,22.98
2023-02-14T08:59:46.452Z,21.20
2023-02-14T09:02:19.816Z,22.98
2023-02-14T09:04:53.514Z,21.63
2023-02-14T09:07:28.522Z,19.95
2023-02-14T09:10:01.687Z,20.92
2023-02-14T09:12:35.850Z,21.40
2023-02-14T09:15:11.172Z,26.73
2023-02-14T09:17:45.123Z,23.50
2023-02-14T09:20:18.684Z,20.67
2023-02-14T09:22:56.567Z,20.70
2023-02-14T09:25:30.092Z,20.23
2023-02-14T09:28:03.395Z,19.77
2023-02-14T09:30:36.659Z,19.23
2023-02-14T09:33:11.398Z,19.77
2023-02-14T09:36:02.811Z,19.58
2023-02-14T09:38:37.606Z,18.88
2023-02-14T09:41:34.874Z,20.27
2023-02-14T09:44:13.810Z,18.48
2023-02-14T09:46:53.206Z,20.15
2023-02-14T09:49:32.952Z,18.42
2023-02-14T09:52:08.578Z,17.45
2023-02-14T09:54:46.433Z,18.88
2023-02-14T09:57:27.685Z,18.60
2023-02-14T10:00:12.659Z,18.45
2023-02-14T10:02:58.436Z,19.67
2023-02-14T10:05:37.048Z,20.55
2023-02-14T10:08:26.613Z,20.20
2023-02-14T10:11:07.252Z,19.10
2023-02-14T10:13:44.437Z,17.77
2023-02-14T10:16:26.780Z,17.40
2023-02-14T10:19:03.490Z,16.85
2023-02-14T10:21:41.495Z,18.50
2023-02-14T10:24:19.976Z,17.38
2023-02-14T10:26:59.542Z,16.83
2023-02-14T10:29:32.768Z,16.23
2023-02-14T10:32:15.153Z,15.30
2023-02-14T10:34:50.429Z,17.50
2023-02-14T10:37:37.288Z,17.05
2023-02-14T10:40:42.906Z,17.30
2023-02-14T10:43:29.680Z,19.00
2023-02-14T10:46:13.584Z,18.85
2023-02-14T10:48:57.857Z,17.15
2023-02-14T10:51:38.600Z,22.20
2023-02-14T10:54:20.700Z,17.10
2023-02-14T10:57:00.291Z,16.88
2023-02-14T10:59:44.033Z,16.83
2023-02-14T11:02:19.728Z,18.10
2023-02-14T11:04:53.984Z,16.45
2023-02-14T11:07:27.273Z,17.38
2023-02-14T11:10:00.857Z,16.00
2023-02-14T11:12:38.317Z,16.25
2023-02-14T11:15:23.625Z,17.38
2023-02-14T11:18:18.106Z,15.57
2023-02-14T11:21:02.387Z,17.40
2023-02-14T11:23:38.822Z,17.10
2023-02-14T11:26:18.604Z,15.68
2023-02-14T11:28:56.848Z,16.88
2023-02-14T11:31:34.776Z,17.38
2023-02-14T11:34:25.094Z,17.92
2023-02-14T11:36:58.652Z,17.60
2023-02-14T11:42:07.090Z,13.85
2023-02-14T11:47:31.192Z,15.75
2023-02-14T11:50:12.798Z,16.90
2023-02-14T11:52:52.157Z,16.85
2023-02-14T11:55:28.743Z,14.70
2023-02-14T11:58:05.515Z,15.80
2023-02-14T12:00:38.863Z,16.10
2023-02-14T12:03:20.251Z,13.93
2023-02-14T12:05:57.552Z,17.13
2023-02-14T12:08:33.346Z,15.02
2023-02-14T12:11:18.909Z,16.30
2023-02-14T12:13:55.073Z,14.82
2023-02-14T12:16:35.300Z,14.95
2023-02-14T12:19:18.259Z,15.60
2023-02-14T12:21:54.682Z,14.85
2023-02-14T12:24:34.612Z,14.68
2023-02-14T12:27:21.370Z,13.80
2023-02-14T12:30:00.907Z,17.73
2023-02-14T12:32:35.482Z,12.95
2023-02-14T12:35:17.331Z,14.38
2023-02-14T12:38:06.877Z,13.15
2023-02-14T12:40:52.307Z,13.18
2023-02-14T12:43:45.744Z,12.93
2023-02-14T12:46:56.572Z,13.95
2023-02-14T12:50:02.167Z,12.85
2023-02-14T12:52:49.510Z,13.20
2023-02-14T12:55:42.254Z,13.73
2023-02-14T12:58:30.169Z,11.02
2023-02-14T13:01:28.476Z,12.38
2023-02-14T13:04:43.404Z,11.25
2023-02-14T13:07:27.183Z,11.95
2023-02-14T13:10:10.151Z,11.27
2023-02-14T13:12:52.997Z,11.05
2023-02-14T13:15:35.681Z,11.00
2023-02-14T13:18:15.484Z,12.23
2023-02-14T13:20:53.234Z,11.65
2023-02-14T13:23:31.630Z,12.32
2023-02-14T13:26:12.575Z,12.15
2023-02-14T13:28:51.943Z,12.75
2023-02-14T13:31:25.837Z,11.63
2023-02-14T13:34:08.067Z,11.43
2023-02-14T13:36:42.462Z,11.15
2023-02-14T13:39:26.191Z,12.75
2023-02-14T13:42:01.310Z,11.20
2023-02-14T13:44:44.657Z,12.20
2023-02-14T13:47:20.907Z,11.45
2023-02-14T13:49:57.691Z,11.25
2023-02-14T13:52:42.481Z,11.90
2023-02-14T13:55:20.301Z,12.98
2023-02-14T13:58:05.333Z,12.45
2023-02-14T14:00:43.975Z,11.93
2023-02-14T14:03:57.571Z,14.38
2023-02-14T14:06:31.563Z,13.05
2023-02-14T14:12:01.909Z,12.40
2023-02-14T14:14:39.997Z,15.00
2023-02-14T14:17:26.202Z,12.77
2023-02-14T14:20:01.127Z,13.48
2023-02-14T14:22:48.318Z,14.73
2023-02-14T14:25:32.535Z,15.55
2023-02-14T14:28:12.090Z,15.77
2023-02-14T14:30:47.128Z,15.80
2023-02-14T14:33:27.471Z,15.32
2023-02-14T14:36:04.090Z,15.85
2023-02-14T14:38:49.515Z,17.98
2023-02-14T14:41:29.245Z,18.40
2023-02-14T14:44:03.322Z,18.20
2023-02-14T14:46:38.473Z,17.48
2023-02-14T14:49:13.795Z,17.83
2023-02-14T14:51:47.225Z,20.17
2023-02-14T14:54:25.087Z,18.67
2023-02-14T14:57:01.742Z,16.10
2023-02-14T14:59:37.412Z,15.60
2023-02-14T15:02:24.597Z,17.15
2023-02-14T15:04:57.753Z,17.17
2023-02-14T15:07:35.268Z,18.52
2023-02-14T15:10:23.434Z,16.08
2023-02-14T15:13:17.813Z,19.60
2023-02-14T15:15:52.856Z,15.38
2023-02-14T15:18:29.428Z,16.98
2023-02-14T15:21:04.702Z,15.80
2023-02-14T15:23:38.049Z,16.30
2023-02-14T15:26:18.928Z,17.77
2023-02-14T15:28:57.606Z,15.98
2023-02-14T15:31:33.235Z,16.15
2023-02-14T15:34:09.911Z,16.35
2023-02-14T15:36:54.047Z,15.95
2023-02-14T15:39:31.801Z,15.65
2023-02-14T15:42:06.205Z,16.98
2023-02-14T15:44:40.346Z,16.92
2023-02-14T15:47:15.915Z,17.85
2023-02-14T15:49:50.979Z,17.98
2023-02-14T15:52:24.265Z,16.83
2023-02-14T15:54:57.755Z,17.15
2023-02-14T15:57:33.118Z,15.15
2023-02-14T16:00:12.657Z,16.13
2023-02-14T16:02:49.046Z,16.15
2023-02-14T16:05:25.864Z,16.73
2023-02-14T16:08:01.324Z,15.38
2023-02-14T16:10:36.409Z,15.05
2023-02-14T16:13:21.992Z,15.98
2023-02-14T16:16:00.583Z,15.85
2023-02-14T16:18:37.686Z,13.70
2023-02-14T16:21:15.522Z,16.08
2023-02-14T16:24:10.842Z,16.65
2023-02-14T16:26:45.955Z,15.93
2023-02-14T16:29:21.095Z,14.75
2023-02-14T16:32:14.792Z,16.50
2023-02-14T16:34:50.266Z,16.95
2023-02-14T16:37:27.168Z,15.32
2023-02-14T16:40:02.470Z,14.98
2023-02-14T16:42:36.992Z,16.00
2023-02-14T16:45:16.448Z,15.13
2023-02-14T16:47:50.495Z,17.65
2023-02-14T16:50:24.175Z,14.93
2023-02-14T16:52:59.531Z,15.45
2023-02-14T16:55:32.946Z,17.85
2023-02-14T16:58:06.176Z,17.60
2023-02-14T17:00:39.939Z,18.23
2023-02-14T17:05:47.216Z,18.30
2023-02-14T17:08:21.845Z,20.05
2023-02-14T17:10:56.728Z,20.00
2023-02-14T17:13:33.579Z,19.88
2023-02-14T17:16:11.762Z,17.30
2023-02-14T17:18:49.697Z,20.88
2023-02-14T17:21:24.265Z,20.65
2023-02-14T17:23:59.040Z,20.17
2023-02-14T17:26:33.891Z,18.58
2023-02-14T17:29:08.017Z,18.70
2023-02-14T17:31:41.654Z,18.90
2023-02-14T17:34:15.682Z,20.45
2023-02-14T17:36:48.941Z,19.92
2023-02-14T17:39:23.894Z,19.77
2023-02-14T17:41:57.712Z,18.63
2023-02-14T17:44:34.483Z,18.25
2023-02-14T17:47:08.501Z,18.75
2023-02-14T17:49:41.908Z,17.27
2023-02-14T17:52:15.804Z,17.63
2023-02-14T17:57:23.404Z,17.60
2023-02-14T17:59:58.177Z,17.02
2023-02-14T18:02:31.866Z,17.15
2023-02-14T18:05:07.864Z,17.30
2023-02-14T18:07:41.060Z,17.83
2023-02-14T18:10:15.632Z,16.60
2023-02-14T18:12:49.379Z,19.00
2023-02-14T18:15:22.692Z,18.70
2023-02-14T18:17:56.234Z,17.95
2023-02-14T18:20:29.645Z,15.63
2023-02-14T18:23:07.052Z,15.93
2023-02-14T18:25:41.771Z,16.52
2023-02-14T18:28:15.100Z,17.52
2023-02-14T18:30:48.737Z,19.13
2023-02-14T18:33:24.126Z,19.70
2023-02-14T18:35:58.815Z,19.90
2023-02-14T18:38:32.051Z,17.10
2023-02-14T18:41:09.484Z,17.48
2023-02-14T18:43:42.961Z,18.02
2023-02-14T18:46:18.458Z,15.75
2023-02-14T18:48:52.247Z,15.88
2023-02-14T18:51:27.105Z,17.48
2023-02-14T18:54:04.871Z,17.83
2023-02-14T18:56:40.016Z,17.10
2023-02-14T18:59:14.410Z,17.83
2023-02-14T19:01:47.627Z,17.35
2023-02-14T19:04:21.720Z,16.73
2023-02-14T19:06:55.039Z,16.60
2023-02-14T19:09:29.496Z,17.73
2023-02-14T19:12:05.469Z,16.55
2023-02-14T19:14:39.238Z,18.02
2023-02-14T19:17:13.202Z,16.63
2023-02-14T19:19:47.730Z,16.52
2023-02-14T19:22:21.354Z,13.48
2023-02-14T19:24:54.937Z,16.23
2023-02-14T19:27:30.026Z,18.58
2023-02-14T19:30:03.536Z,16.45
2023-02-14T19:32:36.922Z,14.57
2023-02-14T19:35:10.097Z,15.48
2023-02-14T19:37:43.324Z,14.07
2023-02-14T19:40:16.441Z,13.77
2023-02-14T19:42:51.208Z,14.82
2023-02-14T19:45:25.052Z,14.23
2023-02-14T19:47:59.295Z,13.02
2023-02-14T19:50:33.251Z,13.93
2023-02-14T19:53:06.640Z,14.48
2023-02-14T19:55:40.501Z,14.13
2023-02-14T19:58:15.951Z,14.15
2023-02-14T20:00:58.078Z,13.55
2023-02-14T20:03:33.365Z,14.47
2023-02-14T20:06:06.827Z,15.88
2023-02-14T20:08:40.054Z,17.75
2023-02-14T20:11:25.932Z,17.08
2023-02-14T20:14:01.941Z,15.85
2023-02-14T20:16:36.612Z,17.17
2023-02-14T20:19:12.178Z,19.55
2023-02-14T20:21:47.596Z,17.52
2023-02-14T20:24:23.700Z,18.92
2023-02-14T20:26:57.542Z,18.48
2023-02-14T20:29:32.440Z,17.52
2023-02-14T20:32:06.402Z,18.38
2023-02-14T20:34:40.297Z,19.13
2023-02-14T20:37:13.542Z,19.38
2023-02-14T20:39:46.830Z,20.27
2023-02-14T20:42:20.061Z,20.98
2023-02-14T20:44:54.648Z,19.70
2023-02-14T20:47:28.743Z,20.45
2023-02-14T20:50:02.259Z,19.10
2023-02-14T20:52:37.503Z,20.90
2023-02-14T20:55:10.692Z,20.30
2023-02-14T20:57:43.805Z,20.25
2023-02-14T21:00:20.040Z,20.33
2023-02-14T21:02:53.812Z,20.20
2023-02-14T21:05:27.416Z,20.10
2023-02-14T21:08:00.950Z,18.95
2023-02-14T21:10:34.139Z,16.83
2023-02-14T21:13:08.717Z,18.83
2023-02-14T21:15:44.114Z,18.90
2023-02-14T21:18:17.465Z,18.45
2023-02-14T21:20:51.952Z,18.77
2023-02-14T21:23:25.326Z,17.08
2023-02-14T21:25:58.616Z,19.20
2023-02-14T21:28:32.130Z,18.67
2023-02-14T21:31:08.357Z,17.50
2023-02-14T21:33:41.804Z,19.77
2023-02-14T21:36:17.917Z,18.55
2023-02-14T21:38:52.195Z,17.75
2023-02-14T21:41:27.628Z,17.20
2023-02-14T21:44:02.644Z,17.52
2023-02-14T21:46:41.108Z,18.83
2023-02-14T21:49:32.129Z,16.65
2023-02-14T21:52:05.309Z,16.90
2023-02-14T21:54:38.970Z,17.33
2023-02-14T21:57:12.488Z,19.30
2023-02-14T21:59:45.797Z,20.45
2023-02-14T22:02:20.288Z,20.52
2023-02-14T22:04:53.500Z,20.25
2023-02-14T22:07:29.004Z,17.73
2023-02-14T22:10:02.713Z,18.15
2023-02-14T22:12:40.165Z,17.45
2023-02-14T22:15:13.960Z,18.50
2023-02-14T22:17:48.745Z,17.58
2023-02-14T22:20:22.074Z,17.25
2023-02-14T22:22:55.258Z,14.73
2023-02-14T22:25:28.626Z,15.98
2023-02-14T22:28:02.253Z,14.07
2023-02-14T22:30:35.831Z,17.02
2023-02-14T22:33:10.382Z,15.20
2023-02-14T22:35:43.695Z,15.25
2023-02-14T22:38:16.789Z,17.33
2023-02-14T22:40:50.077Z,18.63
2023-02-14T22:43:24.043Z,16.02
2023-02-14T22:45:57.637Z,17.52
2023-02-14T22:48:33.624Z,14.93
2023-02-14T22:51:12.838Z,16.50
2023-02-14T22:53:46.222Z,16.98
2023-02-14T22:56:22.156Z,15.95
2023-02-14T22:58:56.409Z,16.00
2023-02-14T23:01:29.866Z,19.55
2023-02-14T23:04:05.329Z,18.83
2023-02-14T23:06:38.959Z,17.80
2023-02-14T23:09:13.228Z,19.63
2023-02-14T23:11:48.885Z,17.15
2023-02-14T23:14:40.172Z,18.88
2023-02-14T23:17:33.979Z,16.98
2023-02-14T23:20:28.044Z,17.35
2023-02-14T23:23:01.640Z,16.88
2023-02-14T23:25:34.850Z,17.50
2023-02-14T23:28:07.894Z,18.15
2023-02-14T23:30:41.421Z,17.42
2023-02-14T23:33:15.141Z,16.77
2023-02-14T23:35:49.733Z,14.88
2023-02-14T23:38:23.387Z,19.75
2023-02-14T23:41:14.301Z,18.10
2023-02-14T23:43:49.931Z,15.32
2023-02-14T23:46:23.348Z,18.42
2023-02-14T23:48:56.868Z,16.40
2023-02-14T23:51:31.906Z,18.30
2023-02-14T23:54:05.288Z,18.60
2023-02-14T23:56:39.648Z,17.30
2023-02-14T23:59:14.517Z,17.40
